Time;durP1;ratioP1;P1;durP2;ratioP2;P2;SDS_P1;SDS_P2;PMS_P1;PMS_P2;Temp;Humidity;BMP_temperature;BMP_pressure;BME280_temperature;BME280_humidity;BME280_pressure;Samples;Min_cycle;Max_cycle;Signal;HPM_P1;HPM_P2
2022/11/03 00:01:38;;;;;;;6.03;1.20;;;11.20;1.00;;;;;;5077034;28;20242;-82
2022/11/03 00:04:08;;;;;;;9.53;2.03;;;11.20;1.00;;;;;;5077130;28;20720;-81
2022/11/03 00:06:34;;;;;;;9.00;1.67;;;11.20;1.00;;;;;;5076365;28;20195;-83
2022/11/03 00:09:04;;;;;;;10.93;2.33;;;11.20;1.00;;;;;;5078394;28;20564;-82
2022/11/03 00:11:33;;;;;;;8.30;1.90;;;11.20;1.00;;;;;;5077878;28;20257;-82
2022/11/03 00:13:58;;;;;;;6.53;1.50;;;11.20;1.00;;;;;;5077507;28;20178;-81
2022/11/03 00:16:24;;;;;;;5.77;1.57;;;11.20;8.30;;;;;;5062405;28;20179;-82
2022/11/03 00:18:50;;;;;;;7.77;1.90;;;11.20;11.70;;;;;;5059514;28;20670;-83
2022/11/03 00:21:16;;;;;;;7.53;2.00;;;11.20;2.00;;;;;;5058217;28;20171;-83
2022/11/03 00:23:43;;;;;;;6.13;1.53;;;11.20;1.00;;;;;;5059701;28;20172;-83
2022/11/03 00:26:14;;;;;;;7.33;1.80;;;11.20;36.70;;;;;;5072217;28;20281;-83
2022/11/03 00:28:42;;;;;;;12.07;1.77;;;11.20;30.20;;;;;;5078402;28;20685;-83
2022/11/03 00:31:13;;;;;;;7.63;1.97;;;11.30;60.40;;;;;;5079180;28;20653;-82
2022/11/03 00:33:39;;;;;;;8.13;1.87;;;11.30;99.90;;;;;;5080298;28;20163;-82
2022/11/03 00:36:06;;;;;;;9.37;2.50;;;11.20;99.90;;;;;;5079595;28;20193;-82
2022/11/03 00:38:32;;;;;;;7.53;2.23;;;11.30;99.90;;;;;;5078907;28;20191;-82
2022/11/03 00:41:00;;;;;;;6.97;2.33;;;11.30;99.90;;;;;;5079518;28;20183;-83
2022/11/03 00:43:27;;;;;;;7.60;1.70;;;11.20;99.90;;;;;;5081265;28;20196;-83
2022/11/03 00:45:53;;;;;;;8.30;1.83;;;11.30;99.90;;;;;;5079290;28;20179;-82
2022/11/03 00:48:28;;;;;;;6.90;2.03;;;11.30;99.90;;;;;;5080292;28;20285;-82
2022/11/03 00:50:58;;;;;;;6.13;1.80;;;11.30;99.90;;;;;;5078349;28;20167;-82
2022/11/03 00:53:24;;;;;;;10.03;2.47;;;11.30;99.90;;;;;;5081222;28;20175;-83
2022/11/03 00:55:49;;;;;;;8.80;2.27;;;11.30;99.90;;;;;;5070799;28;20647;-82
2022/11/03 00:58:15;;;;;;;7.10;1.90;;;11.30;99.90;;;;;;5061605;28;20266;-82
2022/11/03 01:00:40;;;;;;;7.13;1.80;;;11.30;99.90;;;;;;5062159;28;20258;-84
2022/11/03 01:03:06;;;;;;;6.07;1.60;;;11.30;99.90;;;;;;5061937;28;20652;-82
2022/11/03 01:08:15;;;;;;;9.13;2.00;;;11.30;99.90;;;;;;5084666;28;20565;-83
2022/11/03 01:11:42;;;;;;;12.53;2.70;;;11.30;99.90;;;;;;5084472;28;20179;-82
2022/11/03 01:13:26;;;;;;;7.00;2.10;;;11.30;99.90;;;;;;5084575;28;20633;-82
2022/11/03 01:15:57;;;;;;;10.70;2.10;;;11.30;99.90;;;;;;5082108;28;20232;-83
2022/11/03 01:18:23;;;;;;;9.67;2.20;;;11.30;99.90;;;;;;5084241;28;20209;-83
2022/11/03 01:20:54;;;;;;;10.03;2.23;;;11.30;99.90;;;;;;5082664;28;20179;-83
2022/11/03 01:23:20;;;;;;;9.00;2.43;;;11.30;99.90;;;;;;5085431;28;20155;-83
2022/11/03 01:25:45;;;;;;;7.67;2.23;;;11.20;99.90;;;;;;5082636;28;20266;-82
2022/11/03 01:28:11;;;;;;;8.60;2.13;;;11.30;99.90;;;;;;5084668;28;20194;-83
2022/11/03 01:30:36;;;;;;;9.53;2.37;;;11.30;99.90;;;;;;5083505;28;20197;-83
2022/11/03 01:33:02;;;;;;;6.40;2.10;;;11.20;99.90;;;;;;5085208;28;20171;-82
2022/11/03 01:35:27;;;;;;;7.37;2.20;;;11.20;99.90;;;;;;5079233;28;20637;-83
2022/11/03 01:37:55;;;;;;;10.13;2.43;;;11.20;99.90;;;;;;5083485;28;20587;-81
2022/11/03 01:40:21;;;;;;;5.67;2.10;;;11.20;1.00;;;;;;5085564;28;20171;-83
2022/11/03 01:42:46;;;;;;;10.53;2.17;;;11.20;1.00;;;;;;5084660;28;20178;-83
2022/11/03 01:45:12;;;;;;;8.20;2.23;;;11.10;1.00;;;;;;5083933;28;20191;-83
2022/11/03 01:47:38;;;;;;;13.63;2.37;;;11.20;1.00;;;;;;5084949;28;20222;-82
2022/11/03 01:50:03;;;;;;;11.27;2.37;;;11.10;1.00;;;;;;5083513;28;20174;-83
2022/11/03 01:52:39;;;;;;;6.80;1.90;;;11.10;1.00;;;;;;5085460;28;20237;-83
2022/11/03 01:55:12;;;;;;;8.67;2.23;;;11.10;1.00;;;;;;5085936;28;20181;-83
2022/11/03 01:57:44;;;;;;;9.50;2.53;;;11.10;1.00;;;;;;5090058;28;20175;-83
2022/11/03 02:00:10;;;;;;;10.13;2.33;;;11.10;1.00;;;;;;5101101;28;20147;-82
2022/11/03 02:02:36;;;;;;;12.27;2.53;;;11.10;1.00;;;;;;5099071;28;20183;-82
2022/11/03 02:05:04;;;;;;;8.37;1.93;;;11.10;1.00;;;;;;5074028;28;20329;-82
2022/11/03 02:07:48;;;;;;;9.27;2.47;;;11.10;1.00;;;;;;5058550;28;20219;-83
2022/11/03 02:10:14;;;;;;;9.40;2.00;;;11.10;1.00;;;;;;5059867;28;20180;-83
2022/11/03 02:12:41;;;;;;;9.97;2.67;;;11.10;1.00;;;;;;5060356;28;20171;-82
2022/11/03 02:15:12;;;;;;;7.03;2.13;;;11.10;1.00;;;;;;5066188;28;20175;-82
2022/11/03 02:17:40;;;;;;;6.30;2.00;;;11.10;1.00;;;;;;5079371;28;20223;-83
2022/11/03 02:20:11;;;;;;;8.50;2.17;;;11.10;1.00;;;;;;5079912;28;20186;-82
2022/11/03 02:23:04;;;;;;;9.37;2.50;;;11.00;1.00;;;;;;5078496;28;20175;-83
2022/11/03 02:25:50;;;;;;;9.63;2.17;;;11.10;1.00;;;;;;5080248;28;20530;-82
2022/11/03 02:28:19;;;;;;;9.67;1.87;;;11.00;1.00;;;;;;5080462;28;20198;-83
2022/11/03 02:31:17;;;;;;;12.40;3.30;;;11.00;1.00;;;;;;5080376;28;20175;-83
2022/11/03 02:34:03;;;;;;;7.40;2.17;;;11.00;1.00;;;;;;5078728;28;20198;-83
2022/11/03 02:36:35;;;;;;;9.97;3.10;;;11.00;1.00;;;;;;5078084;28;20276;-82
2022/11/03 02:39:15;;;;;;;4.60;2.03;;;11.00;1.00;;;;;;5075871;28;20221;-82
2022/11/03 02:41:42;;;;;;;7.03;2.27;;;11.10;1.00;;;;;;5059221;28;20178;-83
2022/11/03 02:44:15;;;;;;;14.43;2.80;;;11.00;1.00;;;;;;5060277;28;20183;-82
2022/11/03 02:46:43;;;;;;;8.23;2.40;;;11.00;1.00;;;;;;5078236;28;20201;-82
2022/11/03 02:49:09;;;;;;;6.73;2.20;;;11.00;1.00;;;;;;5081574;28;20691;-82
2022/11/03 02:51:34;;;;;;;12.17;2.67;;;11.00;1.00;;;;;;5079630;28;20170;-82
2022/11/03 02:54:09;;;;;;;10.63;2.40;;;11.00;1.00;;;;;;5081766;28;20170;-82
2022/11/03 02:56:48;;;;;;;12.00;2.37;;;11.00;1.00;;;;;;5079687;28;20229;-82
2022/11/03 02:59:20;;;;;;;10.87;2.23;;;11.00;1.00;;;;;;5080053;28;20217;-82
2022/11/03 03:01:51;;;;;;;9.07;2.40;;;11.00;1.00;;;;;;5079607;28;20208;-82
2022/11/03 03:04:20;;;;;;;11.67;2.37;;;11.00;1.00;;;;;;5080576;28;20167;-83
2022/11/03 03:06:52;;;;;;;7.53;2.37;;;11.00;1.00;;;;;;5081873;28;20198;-83
2022/11/03 03:09:23;;;;;;;8.30;2.40;;;11.00;1.00;;;;;;5080035;28;20680;-82
2022/11/03 03:11:51;;;;;;;12.33;2.50;;;11.00;1.00;;;;;;5077733;28;20168;-82
2022/11/03 03:14:24;;;;;;;12.83;2.70;;;11.00;1.00;;;;;;5077110;28;20641;-83
2022/11/03 03:17:01;;;;;;;6.93;2.00;;;11.00;1.00;;;;;;5077003;28;20186;-82
2022/11/03 03:19:42;;;;;;;6.97;2.37;;;11.00;1.00;;;;;;5077854;28;20221;-83
2022/11/03 03:22:27;;;;;;;13.97;3.20;;;11.10;1.00;;;;;;5077881;28;20534;-83
2022/11/03 03:25:05;;;;;;;7.50;2.30;;;11.10;1.00;;;;;;5077130;28;20540;-82
2022/11/03 03:27:33;;;;;;;11.73;2.30;;;11.00;1.00;;;;;;5076857;28;20217;-82
2022/11/03 03:30:04;;;;;;;9.10;2.53;;;11.10;1.00;;;;;;5077818;28;20269;-82
2022/11/03 03:32:34;;;;;;;10.03;2.77;;;11.10;1.00;;;;;;5079407;28;20667;-82
2022/11/03 03:35:02;;;;;;;6.67;2.10;;;11.10;1.00;;;;;;5078413;28;20262;-82
2022/11/03 03:37:29;;;;;;;6.40;1.97;;;11.10;1.00;;;;;;5079709;28;20202;-83
2022/11/03 03:40:00;;;;;;;8.27;2.77;;;11.10;1.00;;;;;;5080186;28;20175;-83
2022/11/03 03:42:28;;;;;;;8.43;2.13;;;11.10;1.00;;;;;;5077992;28;20221;-82
2022/11/03 03:44:55;;;;;;;9.57;2.50;;;11.10;1.00;;;;;;5077275;28;20680;-83
2022/11/03 03:47:27;;;;;;;7.90;2.20;;;11.20;1.00;;;;;;5080524;28;20606;-83
2022/11/03 03:49:53;;;;;;;7.57;2.20;;;11.20;1.00;;;;;;5079006;28;20541;-82
2022/11/03 03:52:19;;;;;;;5.30;2.17;;;11.20;4.20;;;;;;5080420;28;20171;-81
2022/11/03 03:54:45;;;;;;;9.93;2.20;;;11.10;1.00;;;;;;5080304;28;20201;-83
2022/11/03 03:57:15;;;;;;;9.17;2.10;;;11.20;1.00;;;;;;5080233;28;20257;-83
2022/11/03 03:59:42;;;;;;;10.53;2.40;;;11.20;10.70;;;;;;5081545;28;20216;-83
2022/11/03 04:02:08;;;;;;;6.57;2.17;;;11.20;8.80;;;;;;5079927;28;20182;-82
2022/11/03 04:04:34;;;;;;;10.07;2.57;;;11.20;17.30;;;;;;5079707;28;20182;-82
2022/11/03 04:09:43;;;;;;;8.27;2.10;;;11.30;35.30;;;;;;5062714;28;20581;-81
2022/11/03 04:23:10;;;;;;;10.67;2.17;;;11.30;46.10;;;;;;5085235;28;20189;-82
2022/11/03 04:25:35;;;;;;;8.30;2.13;;;11.30;78.30;;;;;;5083756;28;20651;-82
2022/11/03 04:28:11;;;;;;;10.13;2.90;;;11.30;87.00;;;;;;5087076;28;20206;-82
2022/11/03 04:30:37;;;;;;;9.93;2.30;;;11.40;92.20;;;;;;5088065;28;20159;-83
2022/11/03 04:33:10;;;;;;;9.40;2.00;;;11.40;61.80;;;;;;5085162;28;20171;-82
2022/11/03 04:35:36;;;;;;;6.93;2.27;;;11.40;78.10;;;;;;5083761;28;20197;-82
2022/11/03 04:38:08;;;;;;;7.50;2.30;;;11.40;64.90;;;;;;5087987;28;20759;-82
2022/11/03 04:40:34;;;;;;;9.20;2.17;;;11.40;77.80;;;;;;5087189;28;20193;-82
2022/11/03 04:42:59;;;;;;;12.67;3.07;;;11.40;72.60;;;;;;5087201;28;20175;-83
2022/11/03 04:45:32;;;;;;;7.97;2.10;;;11.40;65.90;;;;;;5086286;28;20562;-83
2022/11/03 04:48:00;;;;;;;8.00;2.50;;;11.40;65.10;;;;;;5085550;28;20229;-83
2022/11/03 04:50:26;;;;;;;9.97;2.47;;;11.50;68.10;;;;;;5086162;28;20247;-83
2022/11/03 04:52:57;;;;;;;8.20;2.13;;;11.40;73.20;;;;;;5085980;28;20171;-81
2022/11/03 04:55:23;;;;;;;6.87;2.30;;;11.40;81.50;;;;;;5086744;28;20189;-81
2022/11/03 04:57:56;;;;;;;7.20;2.27;;;11.50;87.10;;;;;;5087704;28;20210;-83
2022/11/03 05:00:22;;;;;;;7.77;2.00;;;11.40;86.60;;;;;;5088212;28;20167;-83
2022/11/03 05:02:49;;;;;;;10.40;2.47;;;11.40;92.70;;;;;;5086984;28;20171;-83
2022/11/03 05:05:20;;;;;;;10.63;2.90;;;11.40;93.30;;;;;;5086363;28;20233;-82
2022/11/03 05:07:49;;;;;;;9.97;2.53;;;11.40;96.20;;;;;;5088862;28;20217;-83
2022/11/03 05:10:25;;;;;;;8.03;2.10;;;11.50;94.50;;;;;;5091426;28;20178;-83
2022/11/03 05:12:53;;;;;;;8.10;2.00;;;11.40;95.80;;;;;;5101382;28;20154;-82
2022/11/03 05:15:27;;;;;;;8.77;2.57;;;11.40;93.90;;;;;;5099292;28;20183;-82
2022/11/03 05:17:54;;;;;;;8.37;2.60;;;11.40;98.70;;;;;;5088882;28;20285;-82
2022/11/03 05:20:30;;;;;;;7.07;1.73;;;11.40;99.90;;;;;;5085024;28;20258;-83
2022/11/03 05:22:56;;;;;;;6.53;2.13;;;11.40;99.90;;;;;;5083075;28;20191;-84
2022/11/03 05:25:41;;;;;;;8.23;2.10;;;11.40;99.90;;;;;;5082055;28;20671;-83
2022/11/03 05:28:29;;;;;;;9.03;2.00;;;11.40;99.90;;;;;;5074934;28;20306;-82
2022/11/03 05:30:55;;;;;;;6.00;2.10;;;11.40;99.90;;;;;;5061211;28;20172;-81
2022/11/03 05:33:23;;;;;;;5.57;1.83;;;11.40;99.90;;;;;;5062024;28;20176;-83
2022/11/03 05:35:49;;;;;;;12.27;2.33;;;11.40;99.90;;;;;;5075913;28;20182;-80
2022/11/03 05:38:17;;;;;;;10.30;2.47;;;11.40;99.90;;;;;;5080459;28;20206;-79
2022/11/03 05:40:43;;;;;;;8.93;2.00;;;11.40;99.90;;;;;;5079602;28;20655;-80
2022/11/03 05:43:12;;;;;;;8.60;2.00;;;11.40;99.90;;;;;;5080463;28;20175;-80
2022/11/03 05:45:37;;;;;;;10.10;2.30;;;11.40;99.90;;;;;;5075897;28;20624;-80
2022/11/03 05:48:29;;;;;;;11.60;2.27;;;11.40;99.90;;;;;;5076968;28;20242;-80
2022/11/03 05:50:59;;;;;;;9.03;2.13;;;11.40;99.90;;;;;;5078435;28;20155;-80
2022/11/03 05:53:30;;;;;;;10.60;1.63;;;11.40;99.90;;;;;;5078308;28;20167;-80
2022/11/03 05:55:59;;;;;;;5.87;2.20;;;11.40;99.90;;;;;;5077742;28;20605;-81
2022/11/03 05:58:33;;;;;;;6.90;1.87;;;11.40;99.90;;;;;;5077416;28;20669;-80
2022/11/03 06:01:04;;;;;;;5.60;2.27;;;11.40;99.90;;;;;;5076920;28;20179;-82
2022/11/03 06:03:33;;;;;;;6.07;1.73;;;11.50;99.90;;;;;;5076320;28;20171;-80
2022/11/03 06:06:00;;;;;;;7.73;2.70;;;11.40;99.90;;;;;;5076673;28;20212;-81
2022/11/03 06:08:35;;;;;;;9.83;2.10;;;11.40;99.90;;;;;;5075150;28;20735;-81
2022/11/03 06:11:03;;;;;;;8.33;2.37;;;11.40;99.90;;;;;;5066462;28;20197;-81
2022/11/03 06:13:37;;;;;;;9.83;2.47;;;11.40;99.90;;;;;;5076369;28;20181;-81
2022/11/03 06:16:11;;;;;;;12.67;2.13;;;11.40;99.90;;;;;;5059949;28;20179;-81
2022/11/03 06:18:37;;;;;;;10.90;2.37;;;11.40;99.90;;;;;;5056737;28;20665;-79
2022/11/03 06:21:15;;;;;;;7.27;2.00;;;11.40;99.90;;;;;;5062192;28;20183;-80
2022/11/03 06:23:41;;;;;;;7.33;2.80;;;11.40;99.90;;;;;;5077251;28;20216;-79
2022/11/03 06:26:21;;;;;;;10.03;2.30;;;11.40;99.90;;;;;;5077317;28;20178;-81
2022/11/03 06:28:47;;;;;;;5.23;2.13;;;11.50;94.30;;;;;;5076319;28;20281;-81
2022/11/03 06:31:18;;;;;;;7.53;2.07;;;11.40;96.50;;;;;;5076353;28;20175;-80
2022/11/03 06:33:43;;;;;;;6.67;2.10;;;11.50;99.90;;;;;;5075895;28;20625;-81
2022/11/03 06:36:19;;;;;;;9.40;2.07;;;11.40;99.90;;;;;;5076361;28;20232;-80
2022/11/03 06:38:51;;;;;;;7.60;2.23;;;11.50;99.90;;;;;;5077781;28;20251;-81
2022/11/03 06:41:24;;;;;;;6.93;2.27;;;11.50;99.90;;;;;;5077065;28;20163;-80
2022/11/03 06:43:49;;;;;;;6.67;2.03;;;11.40;99.90;;;;;;5074708;28;20241;-81
2022/11/03 06:46:25;;;;;;;5.67;1.73;;;11.40;99.90;;;;;;5077331;28;20163;-81
2022/11/03 06:48:59;;;;;;;6.13;2.03;;;11.50;99.90;;;;;;5076157;28;20194;-81
2022/11/03 06:51:27;;;;;;;4.73;1.80;;;11.50;99.90;;;;;;5076768;28;20232;-81
2022/11/03 06:53:54;;;;;;;6.30;2.20;;;11.50;99.90;;;;;;5066568;28;20716;-81
2022/11/03 06:56:26;;;;;;;7.80;1.93;;;11.50;99.90;;;;;;5055843;28;20179;-82
2022/11/03 06:58:54;;;;;;;6.17;2.40;;;11.50;99.90;;;;;;5057826;28;20195;-82
2022/11/03 07:01:23;;;;;;;7.67;2.03;;;11.50;99.90;;;;;;5055316;28;20183;-82
2022/11/03 07:03:51;;;;;;;5.63;1.77;;;11.50;98.10;;;;;;5064344;28;20620;-80
2022/11/03 07:06:26;;;;;;;11.07;1.90;;;11.50;95.70;;;;;;5076296;28;20174;-79
2022/11/03 07:08:57;;;;;;;8.27;2.03;;;11.50;86.60;;;;;;5076197;28;20209;-81
2022/11/03 07:11:35;;;;;;;8.23;2.20;;;11.60;92.90;;;;;;5076622;28;20637;-80
2022/11/03 07:14:16;;;;;;;9.40;2.03;;;11.50;93.00;;;;;;5073448;28;20213;-79
2022/11/03 07:16:45;;;;;;;8.50;2.00;;;11.60;94.50;;;;;;5056474;28;20634;-80
2022/11/03 07:19:35;;;;;;;7.67;2.13;;;11.60;88.00;;;;;;5055372;28;20199;-80
2022/11/03 07:22:07;;;;;;;5.57;2.50;;;11.60;89.40;;;;;;5054946;28;20191;-81
2022/11/03 07:24:38;;;;;;;11.70;2.30;;;11.70;97.70;;;;;;5058545;28;20187;-80
2022/11/03 07:27:16;;;;;;;8.33;1.87;;;11.70;94.60;;;;;;5076550;28;20194;-81
2022/11/03 07:29:43;;;;;;;6.00;2.30;;;11.70;93.90;;;;;;5075885;28;20171;-79
2022/11/03 07:32:18;;;;;;;9.17;2.17;;;11.70;85.50;;;;;;5074066;28;20529;-80
2022/11/03 07:34:44;;;;;;;10.10;2.77;;;11.80;72.90;;;;;;5073317;28;20591;-81
2022/11/03 07:37:18;;;;;;;9.07;2.57;;;11.80;80.80;;;;;;5075339;28;20525;-81
2022/11/03 07:39:43;;;;;;;7.87;2.40;;;11.90;57.40;;;;;;5074109;28;20174;-80
2022/11/03 07:42:16;;;;;;;14.93;2.20;;;11.90;50.50;;;;;;5076217;28;20605;-80
2022/11/03 07:44:42;;;;;;;7.40;3.00;;;11.90;28.50;;;;;;5075744;28;20195;-80
2022/11/03 07:47:14;;;;;;;11.97;2.10;;;12.00;15.30;;;;;;5073543;28;20665;-80
2022/11/03 07:49:41;;;;;;;7.57;2.17;;;12.00;1.90;;;;;;5074710;28;20179;-83
2022/11/03 07:52:18;;;;;;;7.70;2.30;;;12.10;1.00;;;;;;5074886;28;20198;-82
2022/11/03 07:54:44;;;;;;;9.23;2.10;;;12.10;3.10;;;;;;5078265;28;20159;-83
2022/11/03 07:57:19;;;;;;;5.13;1.90;;;12.20;1.00;;;;;;5076979;28;20301;-83
2022/11/03 07:59:48;;;;;;;5.80;1.80;;;12.20;1.00;;;;;;5077211;28;20162;-83
2022/11/03 08:02:32;;;;;;;12.97;2.17;;;12.30;1.00;;;;;;5077226;28;20545;-83
2022/11/03 08:04:59;;;;;;;11.23;2.03;;;12.30;1.00;;;;;;5077620;28;20296;-83
2022/11/03 08:07:26;;;;;;;6.07;1.80;;;12.40;1.00;;;;;;5076867;28;20214;-83
2022/11/03 08:09:52;;;;;;;9.53;1.90;;;12.40;1.00;;;;;;5076927;28;20190;-83
2022/11/03 08:12:18;;;;;;;7.70;2.10;;;12.40;1.00;;;;;;5077309;28;20645;-83
2022/11/03 08:14:44;;;;;;;8.40;2.10;;;12.50;1.00;;;;;;5077929;28;20178;-82
2022/11/03 08:17:09;;;;;;;6.77;2.40;;;12.50;1.00;;;;;;5077362;28;20186;-82
2022/11/03 08:19:35;;;;;;;9.33;2.23;;;12.50;1.00;;;;;;5078048;28;20668;-83
2022/11/03 08:22:00;;;;;;;10.43;2.30;;;12.50;1.00;;;;;;5078929;28;20186;-83
2022/11/03 08:24:25;;;;;;;5.40;2.10;;;12.50;1.00;;;;;;5082189;28;20185;-83
2022/11/03 08:26:51;;;;;;;11.37;2.87;;;12.50;1.00;;;;;;5092766;28;20246;-82
2022/11/03 08:29:17;;;;;;;7.93;2.13;;;12.50;1.00;;;;;;5094602;28;20202;-83
2022/11/03 08:31:43;;;;;;;9.30;2.23;;;12.50;1.00;;;;;;5077005;28;20210;-82
2022/11/03 08:34:09;;;;;;;5.53;2.27;;;12.50;1.00;;;;;;5075865;28;20171;-83
2022/11/03 08:36:34;;;;;;;7.80;2.10;;;12.50;1.00;;;;;;5076766;28;20228;-83
2022/11/03 08:39:00;;;;;;;7.53;2.30;;;12.50;1.00;;;;;;5074246;28;20620;-82
2022/11/03 08:41:25;;;;;;;5.73;2.10;;;12.50;1.00;;;;;;5075194;28;20568;-83
2022/11/03 08:43:51;;;;;;;5.03;1.90;;;12.60;1.00;;;;;;5077158;28;20179;-82
2022/11/03 08:46:16;;;;;;;6.47;3.00;;;12.60;1.00;;;;;;5076775;28;20225;-83
2022/11/03 08:48:42;;;;;;;7.73;2.13;;;12.60;1.00;;;;;;5059281;28;20207;-83
2022/11/03 08:51:09;;;;;;;6.13;2.13;;;12.50;1.00;;;;;;5055404;28;20168;-82
2022/11/03 08:53:35;;;;;;;11.50;2.70;;;12.60;1.00;;;;;;5056507;28;20578;-83
2022/11/03 08:56:00;;;;;;;10.73;2.27;;;12.70;1.00;;;;;;5055655;28;20267;-82
2022/11/03 08:58:26;;;;;;;14.40;2.73;;;12.70;1.00;;;;;;5069289;28;20285;-82
2022/11/03 09:00:51;;;;;;;5.30;1.73;;;12.80;1.00;;;;;;5076383;28;20288;-83
2022/11/03 09:03:17;;;;;;;10.80;2.50;;;12.80;1.00;;;;;;5074796;28;20182;-83
2022/11/03 09:05:43;;;;;;;6.80;2.30;;;12.80;1.00;;;;;;5076646;28;20629;-83
2022/11/03 09:08:09;;;;;;;11.60;2.37;;;12.90;1.00;;;;;;5074603;28;20268;-83
2022/11/03 09:10:34;;;;;;;7.67;2.57;;;12.90;1.00;;;;;;5075036;28;20598;-83
2022/11/03 09:13:00;;;;;;;6.73;2.10;;;12.90;1.00;;;;;;5078738;28;20197;-83
2022/11/03 09:15:25;;;;;;;8.53;2.63;;;12.90;1.00;;;;;;5078927;28;20636;-83
2022/11/03 09:17:51;;;;;;;7.80;2.37;;;13.00;1.00;;;;;;5079679;28;20198;-83
2022/11/03 09:20:16;;;;;;;8.60;2.47;;;13.00;1.00;;;;;;5082406;28;20236;-83
2022/11/03 09:22:42;;;;;;;6.90;2.80;;;13.10;1.00;;;;;;5084129;28;20194;-83
2022/11/03 09:25:08;;;;;;;4.43;1.90;;;13.10;1.00;;;;;;5081005;28;20179;-82
2022/11/03 09:27:34;;;;;;;7.57;2.27;;;13.20;1.00;;;;;;5082328;28;20289;-83
2022/11/03 09:29:59;;;;;;;7.57;2.40;;;13.20;1.00;;;;;;5080281;28;20661;-83
2022/11/03 09:32:25;;;;;;;7.13;2.10;;;13.20;1.00;;;;;;5085367;28;20178;-82
2022/11/03 09:34:50;;;;;;;6.90;2.83;;;13.30;1.00;;;;;;5083448;28;20703;-82
2022/11/03 09:37:16;;;;;;;6.20;2.40;;;13.40;1.00;;;;;;5087220;28;20182;-82
2022/11/03 09:39:42;;;;;;;7.73;2.40;;;13.40;1.00;;;;;;5085118;28;20171;-82
2022/11/03 09:42:09;;;;;;;6.07;2.20;;;13.40;1.00;;;;;;5087115;28;20171;-83
2022/11/03 09:44:35;;;;;;;7.97;2.00;;;13.50;1.00;;;;;;5080144;28;20210;-83
2022/11/03 09:47:02;;;;;;;7.63;2.37;;;13.50;1.00;;;;;;5082730;28;20203;-83
2022/11/03 09:49:30;;;;;;;6.10;2.17;;;13.50;1.00;;;;;;5082064;28;20190;-82
2022/11/03 09:51:57;;;;;;;12.90;2.60;;;13.50;1.00;;;;;;5080721;28;20179;-83
2022/11/03 09:54:23;;;;;;;3.93;1.93;;;13.50;1.00;;;;;;5082089;28;20179;-82
2022/11/03 09:56:48;;;;;;;6.73;2.57;;;13.50;1.00;;;;;;5081638;28;20246;-83
2022/11/03 09:59:19;;;;;;;7.53;2.20;;;13.60;1.00;;;;;;5083133;28;20241;-83
2022/11/03 10:01:48;;;;;;;3.73;1.60;;;13.60;1.00;;;;;;5081530;28;20682;-83
2022/11/03 10:04:18;;;;;;;10.27;2.40;;;13.60;1.00;;;;;;5082411;28;20175;-83
2022/11/03 10:06:43;;;;;;;12.33;2.33;;;13.80;99.90;;;;;;5079161;28;20237;-83
2022/11/03 10:09:16;;;;;;;6.00;1.80;;;13.70;99.90;;;;;;5081088;28;20198;-83
2022/11/03 10:11:42;;;;;;;4.57;2.07;;;13.80;99.90;;;;;;5083330;28;20238;-82
2022/11/03 10:14:12;;;;;;;5.80;2.03;;;13.80;99.90;;;;;;5082119;28;20331;-82
2022/11/03 10:16:39;;;;;;;5.43;2.20;;;13.80;99.90;;;;;;5081068;28;20187;-83
2022/11/03 10:19:08;;;;;;;4.87;2.10;;;13.90;99.90;;;;;;5082705;28;20195;-82
2022/11/03 10:21:35;;;;;;;7.60;1.80;;;13.90;99.90;;;;;;5081075;28;20179;-82
2022/11/03 10:24:01;;;;;;;5.03;1.93;;;14.00;99.90;;;;;;5078109;28;20179;-83
2022/11/03 10:26:27;;;;;;;5.33;1.73;;;14.00;99.90;;;;;;5074992;28;20209;-82
2022/11/03 10:29:03;;;;;;;7.70;1.90;;;14.00;99.90;;;;;;5077757;28;20286;-82
2022/11/03 10:31:33;;;;;;;4.13;2.20;;;14.10;30.00;;;;;;5080747;28;20181;-83
2022/11/03 10:33:58;;;;;;;6.73;1.90;;;14.10;1.00;;;;;;5081379;28;20167;-83
2022/11/03 10:36:26;;;;;;;5.40;1.53;;;14.10;1.00;;;;;;5079983;28;20189;-82
2022/11/03 10:38:53;;;;;;;6.53;1.77;;;14.10;1.00;;;;;;5060197;28;20199;-82
2022/11/03 10:41:27;;;;;;;8.33;2.07;;;14.20;1.00;;;;;;5061561;28;20171;-83
2022/11/03 10:44:17;;;;;;;4.67;1.80;;;14.20;1.00;;;;;;5064877;28;20239;-83
2022/11/03 10:46:59;;;;;;;8.27;2.03;;;14.20;1.00;;;;;;5080526;28;20201;-83
2022/11/03 10:49:27;;;;;;;4.50;1.70;;;14.30;1.00;;;;;;5081176;28;20188;-83
2022/11/03 10:51:56;;;;;;;5.57;1.90;;;14.30;1.00;;;;;;5080103;28;20175;-82
2022/11/03 10:54:23;;;;;;;4.00;1.50;;;14.30;1.00;;;;;;5079500;28;20560;-83
2022/11/03 10:56:50;;;;;;;6.20;1.23;;;14.40;1.00;;;;;;5081434;28;20167;-83
2022/11/03 10:59:30;;;;;;;5.23;1.60;;;14.40;1.00;;;;;;5080925;28;20195;-83
2022/11/03 11:01:57;;;;;;;3.83;1.40;;;14.40;99.90;;;;;;5081373;28;20174;-84
2022/11/03 11:04:22;;;;;;;5.70;1.77;;;14.50;99.90;;;;;;5080816;28;20186;-83
2022/11/03 11:06:48;;;;;;;4.60;1.63;;;14.60;99.90;;;;;;5079646;28;20195;-83
2022/11/03 11:09:24;;;;;;;6.50;1.30;;;14.60;1.00;;;;;;5080938;28;20599;-83
2022/11/03 11:12:15;;;;;;;4.47;1.33;;;14.60;99.90;;;;;;5080105;28;20572;-84
2022/11/03 11:14:51;;;;;;;4.13;1.30;;;14.70;99.90;;;;;;5069086;28;20192;-83
2022/11/03 11:17:35;;;;;;;4.20;1.83;;;14.70;99.90;;;;;;5060938;28;20171;-83
2022/11/03 11:20:28;;;;;;;6.67;1.50;;;14.80;1.00;;;;;;5062047;28;20708;-83
2022/11/03 11:22:54;;;;;;;5.70;1.53;;;14.80;1.00;;;;;;5069132;28;20233;-83
2022/11/03 11:25:20;;;;;;;6.17;1.77;;;14.90;91.60;;;;;;5081911;28;20175;-84
2022/11/03 11:27:49;;;;;;;5.80;1.77;;;14.90;1.00;;;;;;5080596;28;20212;-83
2022/11/03 11:30:18;;;;;;;4.03;1.40;;;15.00;1.00;;;;;;5081874;28;20166;-83
2022/11/03 11:32:43;;;;;;;4.70;1.60;;;15.10;1.00;;;;;;5080385;28;20226;-83
2022/11/03 11:35:22;;;;;;;4.37;1.30;;;15.20;1.00;;;;;;5079839;28;20199;-82
2022/11/03 11:37:47;;;;;;;5.13;1.20;;;15.30;1.00;;;;;;5089978;28;20224;-81
2022/11/03 11:40:22;;;;;;;2.43;1.20;;;15.30;1.00;;;;;;5093552;28;20189;-83
2022/11/03 11:43:03;;;;;;;2.90;1.10;;;15.40;41.40;;;;;;5086588;28;20170;-82
2022/11/03 11:46:06;;;;;;;5.00;1.53;;;15.40;99.90;;;;;;5077740;28;20198;-83
2022/11/03 11:48:33;;;;;;;3.67;1.23;;;15.40;1.00;;;;;;5078350;28;20213;-83
2022/11/03 11:50:59;;;;;;;7.67;1.60;;;15.40;1.00;;;;;;5080983;28;20201;-83
2022/11/03 11:53:26;;;;;;;4.17;1.50;;;15.40;1.00;;;;;;5081207;28;20179;-82
2022/11/03 11:55:57;;;;;;;6.70;1.27;;;15.30;1.00;;;;;;5078812;28;20377;-84
2022/11/03 11:58:48;;;;;;;6.40;1.30;;;15.30;1.00;;;;;;5080219;28;20297;-83
2022/11/03 12:01:28;;;;;;;2.83;1.23;;;15.20;1.00;;;;;;5080656;28;20513;-82
2022/11/03 12:03:56;;;;;;;4.30;1.10;;;15.20;99.90;;;;;;5080711;28;20167;-84
2022/11/03 12:06:32;;;;;;;2.80;1.20;;;15.10;99.90;;;;;;5077975;28;20186;-82
2022/11/03 12:09:11;;;;;;;6.57;1.30;;;15.10;99.90;;;;;;5080967;28;20193;-83
2022/11/03 12:11:57;;;;;;;3.17;1.50;;;15.10;99.90;;;;;;5080459;28;20183;-84
2022/11/03 12:14:34;;;;;;;5.07;1.20;;;15.10;99.90;;;;;;5080880;28;20656;-84
2022/11/03 12:17:17;;;;;;;5.43;1.50;;;15.00;99.90;;;;;;5060297;28;20221;-83
2022/11/03 12:19:51;;;;;;;5.13;1.20;;;14.90;99.90;;;;;;5060621;28;20171;-83
2022/11/03 12:22:23;;;;;;;3.90;1.50;;;14.90;99.90;;;;;;5060405;28;20179;-83
2022/11/03 12:24:53;;;;;;;3.60;1.40;;;14.80;99.90;;;;;;5065029;28;20176;-82
2022/11/03 12:27:25;;;;;;;5.17;1.60;;;14.80;99.90;;;;;;5090024;28;20238;-82
2022/11/03 12:29:52;;;;;;;5.43;1.50;;;14.80;99.90;;;;;;5086757;28;20183;-82
2022/11/03 12:32:18;;;;;;;3.53;1.30;;;14.80;1.00;;;;;;5078285;28;20171;-83
2022/11/03 12:34:44;;;;;;;4.23;1.43;;;15.00;99.90;;;;;;5080881;28;20506;-83
2022/11/03 12:37:10;;;;;;;4.13;1.20;;;14.90;99.90;;;;;;5080144;28;20167;-83
2022/11/03 12:39:35;;;;;;;4.27;1.30;;;14.90;99.90;;;;;;5079359;28;20199;-82
2022/11/03 12:42:01;;;;;;;6.77;1.50;;;15.00;99.90;;;;;;5080125;28;20179;-83
2022/11/03 12:44:26;;;;;;;8.47;1.63;;;15.00;31.10;;;;;;5079193;28;20281;-83
2022/11/03 12:46:52;;;;;;;6.17;1.70;;;15.00;1.00;;;;;;5079359;28;20207;-83
2022/11/03 12:49:18;;;;;;;5.67;1.27;;;15.00;1.00;;;;;;5083572;28;20199;-83
2022/11/03 12:51:43;;;;;;;6.13;1.50;;;14.90;99.90;;;;;;5081704;28;20182;-82
2022/11/03 12:54:09;;;;;;;7.17;1.40;;;14.90;99.90;;;;;;5081838;28;20175;-82
2022/11/03 12:56:34;;;;;;;8.03;1.97;;;14.90;20.10;;;;;;5081136;28;20175;-83
2022/11/03 12:59:00;;;;;;;3.87;1.30;;;14.80;90.70;;;;;;5083512;28;20191;-83
2022/11/03 13:01:25;;;;;;;4.77;1.17;;;14.90;99.90;;;;;;5084214;28;20179;-83
2022/11/03 13:03:51;;;;;;;4.77;1.60;;;14.90;98.90;;;;;;5083804;28;20182;-83
2022/11/03 13:06:17;;;;;;;4.07;1.10;;;14.90;99.90;;;;;;5083537;28;20167;-83
2022/11/03 13:08:43;;;;;;;5.17;1.30;;;14.80;99.90;;;;;;5083424;28;20700;-83
2022/11/03 13:13:53;;;;;;;3.70;1.27;;;14.80;99.90;;;;;;5084162;28;20254;-84
2022/11/03 13:16:19;;;;;;;4.40;1.50;;;14.80;61.90;;;;;;5083619;28;20163;-83
2022/11/03 13:18:44;;;;;;;3.90;1.30;;;14.70;99.90;;;;;;5081837;28;20240;-84
2022/11/03 13:21:10;;;;;;;3.23;1.20;;;14.70;73.60;;;;;;5082170;28;20216;-83
2022/11/03 13:23:36;;;;;;;3.60;1.20;;;14.70;43.60;;;;;;5082091;28;20171;-84